RYR733A EGGD-LROP
Flight info
| Callsign | RYR733A |
|---|---|
| Flight time | 3h 12m |
| Altitude | 37000 |
| Route | YORQI DCT NUCHU L607 KONAN UL607 REMBA DCT MATUG DCT AMASI DCT BOMBI DCT TENLO DCT DEXIT DCT PESAT DCT TEGRI DCT NEKUL DCT LAMIT DCT TOSVI |
| Aircraft | B738/M-SDE3FGILRWY/SB1 |
Departure
| Time | 2026-05-04 00:31 |
|---|---|
| Airport | Bristol Airport (EGGD) |
Arrival
| Time | 2026-05-04 03:43 |
|---|---|
| Airport | Bucharest Henri Coandă International Airport (LROP) |
| Time | Latitude | Longitude | Altitude | Speed | Heading |
|---|---|---|---|---|---|
| 2026-05-03 23:59 | 51.38552 | -2.71018 | 610 ft | 0 kts | 356° |
| 2026-05-04 00:19 | 51.38533 | -2.71016 | 627 ft | 3 kts | 356° |
| 2026-05-04 00:20 | 51.38511 | -2.71013 | 626 ft | 3 kts | 356° |
| 2026-05-04 00:20 | 51.38492 | -2.71012 | 624 ft | 3 kts | 353° |
| 2026-05-04 00:20 | 51.38473 | -2.71003 | 626 ft | 3 kts | 317° |
| 2026-05-04 00:20 | 51.38463 | -2.70977 | 625 ft | 3 kts | 276° |
| 2026-05-04 00:21 | 51.38462 | -2.70944 | 613 ft | 3 kts | 266° |
| 2026-05-04 00:21 | 51.38463 | -2.70939 | 621 ft | 2 kts | 266° |
| 2026-05-04 00:24 | 51.38462 | -2.70951 | 621 ft | 3 kts | 267° |
| 2026-05-04 00:24 | 51.38460 | -2.71007 | 614 ft | 7 kts | 266° |
| 2026-05-04 00:24 | 51.38456 | -2.71113 | 616 ft | 11 kts | 266° |
| 2026-05-04 00:25 | 51.38451 | -2.71260 | 620 ft | 15 kts | 266° |
| 2026-05-04 00:25 | 51.38443 | -2.71474 | 619 ft | 23 kts | 266° |
| 2026-05-04 00:25 | 51.38432 | -2.71741 | 605 ft | 24 kts | 267° |
| 2026-05-04 00:25 | 51.38431 | -2.71996 | 605 ft | 23 kts | 269° |
| 2026-05-04 00:26 | 51.38422 | -2.72243 | 611 ft | 22 kts | 266° |
| 2026-05-04 00:26 | 51.38413 | -2.72483 | 614 ft | 21 kts | 266° |
| 2026-05-04 00:26 | 51.38404 | -2.72711 | 621 ft | 21 kts | 266° |
| 2026-05-04 00:26 | 51.38395 | -2.72942 | 621 ft | 20 kts | 266° |
| 2026-05-04 00:27 | 51.38388 | -2.73125 | 614 ft | 8 kts | 266° |
| 2026-05-04 00:27 | 51.38387 | -2.73149 | 614 ft | 0 kts | 266° |
| 2026-05-04 00:28 | 51.38386 | -2.73168 | 614 ft | 3 kts | 266° |
| 2026-05-04 00:28 | 51.38383 | -2.73226 | 614 ft | 7 kts | 265° |
| 2026-05-04 00:29 | 51.38354 | -2.73313 | 626 ft | 11 kts | 220° |
| 2026-05-04 00:29 | 51.38281 | -2.73341 | 619 ft | 9 kts | 176° |
| 2026-05-04 00:29 | 51.38229 | -2.73302 | 630 ft | 8 kts | 131° |
| 2026-05-04 00:29 | 51.38216 | -2.73239 | 627 ft | 0 kts | 87° |
| 2026-05-04 00:30 | 51.38216 | -2.73227 | 626 ft | 3 kts | 87° |
| 2026-05-04 00:30 | 51.38219 | -2.73137 | 629 ft | 26 kts | 86° |
| 2026-05-04 00:30 | 51.38247 | -2.72415 | 623 ft | 102 kts | 86° |
| 2026-05-04 00:30 | 51.38307 | -2.70918 | 630 ft | 164 kts | 86° |
| 2026-05-04 00:31 | 51.38374 | -2.69061 | 1349 ft | 168 kts | 88° |
| 2026-05-04 00:31 | 51.38429 | -2.67182 | 2213 ft | 171 kts | 88° |
| 2026-05-04 00:31 | 51.38487 | -2.65286 | 3070 ft | 170 kts | 88° |
| 2026-05-04 00:31 | 51.38547 | -2.63393 | 3634 ft | 172 kts | 88° |
| 2026-05-04 00:32 | 51.38612 | -2.61432 | 3976 ft | 177 kts | 88° |
| 2026-05-04 00:32 | 51.38674 | -2.59433 | 4339 ft | 182 kts | 88° |
| 2026-05-04 00:32 | 51.38748 | -2.57421 | 4804 ft | 181 kts | 81° |
| 2026-05-04 00:32 | 51.39259 | -2.55560 | 5105 ft | 190 kts | 49° |
| 2026-05-04 00:33 | 51.40275 | -2.54291 | 5625 ft | 185 kts | 32° |
| 2026-05-04 00:33 | 51.42563 | -2.52149 | 6360 ft | 195 kts | 30° |
| 2026-05-04 00:33 | 51.43795 | -2.51012 | 6716 ft | 216 kts | 31° |
| 2026-05-04 00:34 | 51.45147 | -2.49696 | 6904 ft | 239 kts | 32° |
| 2026-05-04 00:34 | 51.46619 | -2.48226 | 7186 ft | 257 kts | 32° |
| 2026-05-04 00:34 | 51.48200 | -2.46643 | 7464 ft | 279 kts | 32° |
| 2026-05-04 00:34 | 51.49876 | -2.44977 | 8179 ft | 286 kts | 33° |
| 2026-05-04 00:35 | 51.51316 | -2.42798 | 9031 ft | 287 kts | 60° |
| 2026-05-04 00:35 | 51.51935 | -2.39789 | 9875 ft | 287 kts | 86° |
| 2026-05-04 00:35 | 51.51887 | -2.36551 | 10408 ft | 299 kts | 96° |
| 2026-05-04 00:35 | 51.51745 | -2.34283 | 10522 ft | 316 kts | 97° |
| 2026-05-04 00:36 | 51.51474 | -2.30657 | 10841 ft | 335 kts | 98° |
| 2026-05-04 00:36 | 51.51183 | -2.26899 | 11485 ft | 342 kts | 98° |
| 2026-05-04 00:36 | 51.50893 | -2.23092 | 12270 ft | 345 kts | 98° |
| 2026-05-04 00:36 | 51.50609 | -2.19247 | 13047 ft | 349 kts | 98° |
| 2026-05-04 00:37 | 51.50327 | -2.15347 | 13787 ft | 354 kts | 98° |
| 2026-05-04 00:37 | 51.50046 | -2.11400 | 14451 ft | 358 kts | 98° |
| 2026-05-04 00:37 | 51.49764 | -2.07414 | 15125 ft | 362 kts | 98° |
| 2026-05-04 00:37 | 51.49479 | -2.03384 | 15789 ft | 366 kts | 98° |
| 2026-05-04 00:38 | 51.49189 | -1.99299 | 16466 ft | 370 kts | 98° |
| 2026-05-04 00:38 | 51.48895 | -1.95177 | 17129 ft | 374 kts | 99° |
| 2026-05-04 00:38 | 51.48597 | -1.91014 | 17767 ft | 378 kts | 99° |
| 2026-05-04 00:38 | 51.48292 | -1.86790 | 18375 ft | 383 kts | 99° |
| 2026-05-04 00:39 | 51.47983 | -1.82523 | 18928 ft | 387 kts | 99° |
| 2026-05-04 00:39 | 51.47670 | -1.78214 | 19506 ft | 390 kts | 99° |
| 2026-05-04 00:39 | 51.47353 | -1.73872 | 20062 ft | 394 kts | 99° |
| 2026-05-04 00:39 | 51.47031 | -1.69482 | 20602 ft | 398 kts | 99° |
| 2026-05-04 00:40 | 51.46632 | -1.65071 | 21137 ft | 401 kts | 104° |
| 2026-05-04 00:40 | 51.46035 | -1.60695 | 21677 ft | 403 kts | 107° |
| 2026-05-04 00:40 | 51.45386 | -1.56302 | 22201 ft | 407 kts | 107° |
| 2026-05-04 00:40 | 51.44750 | -1.51862 | 22723 ft | 411 kts | 106° |
| 2026-05-04 00:41 | 51.44127 | -1.47372 | 23230 ft | 415 kts | 106° |
| 2026-05-04 00:41 | 51.43504 | -1.42834 | 23682 ft | 419 kts | 106° |
| 2026-05-04 00:41 | 51.42874 | -1.38247 | 24039 ft | 424 kts | 106° |
| 2026-05-04 00:41 | 51.42237 | -1.33631 | 24504 ft | 425 kts | 106° |
| 2026-05-04 00:42 | 51.41596 | -1.28998 | 25007 ft | 426 kts | 106° |
| 2026-05-04 00:42 | 51.40952 | -1.24359 | 25476 ft | 428 kts | 106° |
| 2026-05-04 00:42 | 51.40302 | -1.19700 | 25912 ft | 430 kts | 106° |
| 2026-05-04 00:42 | 51.39661 | -1.15023 | 26330 ft | 433 kts | 104° |
| 2026-05-04 00:43 | 51.39298 | -1.10928 | 26684 ft | 437 kts | 99° |
| 2026-05-04 00:43 | 51.39090 | -1.07190 | 27000 ft | 439 kts | 97° |
| 2026-05-04 00:43 | 51.38873 | -1.02328 | 27405 ft | 441 kts | 97° |
| 2026-05-04 00:44 | 51.38667 | -0.97416 | 27803 ft | 443 kts | 97° |
| 2026-05-04 00:44 | 51.38451 | -0.92474 | 28140 ft | 446 kts | 97° |
| 2026-05-04 00:44 | 51.38217 | -0.87523 | 28465 ft | 449 kts | 97° |
| 2026-05-04 00:44 | 51.37969 | -0.82560 | 28842 ft | 451 kts | 98° |
| 2026-05-04 00:45 | 51.37742 | -0.78181 | 29181 ft | 452 kts | 98° |
| 2026-05-04 00:45 | 51.37676 | -0.76945 | 29272 ft | 452 kts | 98° |
| 2026-05-04 00:45 | 51.37598 | -0.75480 | 29377 ft | 453 kts | 98° |
| 2026-05-04 00:46 | 51.37328 | -0.70447 | 29712 ft | 455 kts | 98° |
| 2026-05-04 00:46 | 51.37052 | -0.65388 | 30036 ft | 457 kts | 98° |
| 2026-05-04 00:46 | 51.36773 | -0.60320 | 30300 ft | 459 kts | 98° |
| 2026-05-04 00:46 | 51.36490 | -0.55205 | 30555 ft | 462 kts | 98° |
| 2026-05-04 00:47 | 51.36206 | -0.50094 | 30828 ft | 463 kts | 98° |
| 2026-05-04 00:47 | 51.35918 | -0.44947 | 31188 ft | 462 kts | 98° |
| 2026-05-04 00:47 | 51.35630 | -0.39842 | 31571 ft | 461 kts | 98° |
| 2026-05-04 00:47 | 51.35340 | -0.34734 | 31914 ft | 460 kts | 98° |
| 2026-05-04 00:48 | 51.35048 | -0.29642 | 32221 ft | 461 kts | 98° |
| 2026-05-04 00:48 | 51.34753 | -0.24542 | 32533 ft | 461 kts | 98° |
| 2026-05-04 00:48 | 51.34455 | -0.19436 | 32871 ft | 460 kts | 98° |
| 2026-05-04 00:48 | 51.34156 | -0.14348 | 33207 ft | 460 kts | 98° |
| 2026-05-04 00:49 | 51.33854 | -0.09258 | 33516 ft | 460 kts | 98° |
| 2026-05-04 00:49 | 51.33551 | -0.04168 | 33792 ft | 460 kts | 99° |
| 2026-05-04 00:49 | 51.33246 | 0.00935 | 34016 ft | 462 kts | 99° |
| 2026-05-04 00:49 | 51.32918 | 0.06066 | 34122 ft | 465 kts | 101° |
| 2026-05-04 00:50 | 51.32487 | 0.11185 | 34354 ft | 464 kts | 102° |
| 2026-05-04 00:50 | 51.31998 | 0.16268 | 34684 ft | 461 kts | 103° |
| 2026-05-04 00:50 | 51.31498 | 0.21259 | 34989 ft | 460 kts | 103° |
| 2026-05-04 00:50 | 51.30989 | 0.26304 | 35227 ft | 460 kts | 103° |
| 2026-05-04 00:51 | 51.30485 | 0.31363 | 35441 ft | 461 kts | 102° |
| 2026-05-04 00:51 | 51.29987 | 0.36425 | 35666 ft | 461 kts | 102° |
| 2026-05-04 00:51 | 51.29758 | 0.38779 | 35804 ft | 461 kts | 102° |
| 2026-05-04 00:51 | 51.29294 | 0.43554 | 36039 ft | 460 kts | 102° |
| 2026-05-04 00:52 | 51.28804 | 0.48604 | 36250 ft | 460 kts | 102° |
| 2026-05-04 00:52 | 51.28312 | 0.53661 | 36401 ft | 462 kts | 102° |
| 2026-05-04 00:52 | 51.27817 | 0.58730 | 36585 ft | 462 kts | 102° |
| 2026-05-04 00:52 | 51.27321 | 0.63798 | 36843 ft | 461 kts | 102° |
| 2026-05-04 00:53 | 51.26823 | 0.68850 | 37008 ft | 462 kts | 102° |
| 2026-05-04 00:53 | 51.25813 | 0.79020 | 36978 ft | 463 kts | 102° |
| 2026-05-04 00:54 | 51.24801 | 0.89125 | 36961 ft | 459 kts | 102° |
| 2026-05-04 00:54 | 51.23788 | 0.99145 | 36939 ft | 456 kts | 103° |
| 2026-05-04 00:55 | 51.22772 | 1.09101 | 36955 ft | 454 kts | 103° |
| 2026-05-04 00:55 | 51.21748 | 1.19032 | 36959 ft | 454 kts | 103° |
| 2026-05-04 00:56 | 51.20714 | 1.28982 | 36953 ft | 456 kts | 103° |
| 2026-05-04 00:56 | 51.19668 | 1.38967 | 36957 ft | 458 kts | 103° |
| 2026-05-04 00:57 | 51.18607 | 1.49015 | 36943 ft | 461 kts | 103° |
| 2026-05-04 00:57 | 51.17532 | 1.59102 | 36947 ft | 463 kts | 103° |
| 2026-05-04 00:58 | 51.16444 | 1.69233 | 36946 ft | 465 kts | 103° |
| 2026-05-04 00:58 | 51.15341 | 1.79400 | 36941 ft | 467 kts | 103° |
| 2026-05-04 00:59 | 51.14235 | 1.89520 | 36941 ft | 467 kts | 103° |
| 2026-05-04 00:59 | 51.13117 | 1.99703 | 36938 ft | 467 kts | 103° |
| 2026-05-04 01:00 | 51.12409 | 2.10005 | 36940 ft | 469 kts | 98° |
| 2026-05-04 01:00 | 51.11948 | 2.20352 | 36939 ft | 468 kts | 98° |
| 2026-05-04 01:01 | 51.11435 | 2.30666 | 36942 ft | 467 kts | 98° |
| 2026-05-04 01:01 | 51.10866 | 2.40944 | 36925 ft | 466 kts | 99° |
| 2026-05-04 01:02 | 51.10281 | 2.51192 | 36936 ft | 465 kts | 99° |
| 2026-05-04 01:02 | 51.09694 | 2.61416 | 36941 ft | 464 kts | 99° |
| 2026-05-04 01:03 | 51.08495 | 2.71380 | 36954 ft | 456 kts | 110° |
| 2026-05-04 01:03 | 51.06686 | 2.81036 | 36941 ft | 456 kts | 111° |
| 2026-05-04 01:04 | 51.04866 | 2.90696 | 36937 ft | 456 kts | 111° |
| 2026-05-04 01:04 | 51.03078 | 3.00374 | 36940 ft | 457 kts | 111° |
| 2026-05-04 01:05 | 51.01296 | 3.10072 | 36939 ft | 458 kts | 111° |
| 2026-05-04 01:05 | 50.99503 | 3.19784 | 36937 ft | 459 kts | 111° |
| 2026-05-04 01:06 | 50.97707 | 3.29447 | 36936 ft | 460 kts | 111° |
| 2026-05-04 01:06 | 50.95889 | 3.39181 | 36933 ft | 460 kts | 111° |
| 2026-05-04 01:07 | 50.94062 | 3.48909 | 36936 ft | 461 kts | 112° |
| 2026-05-04 01:07 | 50.92212 | 3.58711 | 36934 ft | 461 kts | 112° |
| 2026-05-04 01:08 | 50.90371 | 3.68399 | 36939 ft | 462 kts | 112° |
| 2026-05-04 01:08 | 50.88496 | 3.78132 | 36920 ft | 462 kts | 112° |
| 2026-05-04 01:09 | 50.86608 | 3.87863 | 36932 ft | 463 kts | 112° |
| 2026-05-04 01:09 | 50.84712 | 3.97593 | 36942 ft | 463 kts | 112° |
| 2026-05-04 01:10 | 50.82805 | 4.07332 | 36937 ft | 464 kts | 112° |
| 2026-05-04 01:10 | 50.80891 | 4.17065 | 36943 ft | 464 kts | 112° |
| 2026-05-04 01:11 | 50.78967 | 4.26805 | 36931 ft | 464 kts | 112° |
| 2026-05-04 01:11 | 50.77037 | 4.36520 | 36941 ft | 463 kts | 112° |
| 2026-05-04 01:12 | 50.75099 | 4.46221 | 36940 ft | 463 kts | 112° |
| 2026-05-04 01:12 | 50.73154 | 4.55912 | 36941 ft | 463 kts | 112° |
| 2026-05-04 01:13 | 50.71228 | 4.65599 | 36941 ft | 463 kts | 112° |
| 2026-05-04 01:13 | 50.69360 | 4.75302 | 36948 ft | 462 kts | 112° |
| 2026-05-04 01:14 | 50.67487 | 4.84965 | 36953 ft | 461 kts | 112° |
| 2026-05-04 01:14 | 50.65620 | 4.94623 | 36946 ft | 461 kts | 110° |
| 2026-05-04 01:15 | 50.64017 | 5.04408 | 36953 ft | 461 kts | 109° |
| 2026-05-04 01:15 | 50.62484 | 5.14213 | 36939 ft | 461 kts | 109° |
| 2026-05-04 01:16 | 50.60912 | 5.23984 | 36952 ft | 460 kts | 109° |
| 2026-05-04 01:16 | 50.59306 | 5.33734 | 36956 ft | 460 kts | 110° |
| 2026-05-04 01:17 | 50.57688 | 5.43458 | 36962 ft | 460 kts | 110° |
| 2026-05-04 01:17 | 50.56060 | 5.53187 | 36967 ft | 460 kts | 110° |
| 2026-05-04 01:18 | 50.54424 | 5.62917 | 36952 ft | 461 kts | 110° |
| 2026-05-04 01:18 | 50.52776 | 5.72660 | 36964 ft | 461 kts | 110° |
| 2026-05-04 01:19 | 50.51120 | 5.82400 | 36970 ft | 462 kts | 110° |
| 2026-05-04 01:19 | 50.49462 | 5.92099 | 36956 ft | 463 kts | 110° |
| 2026-05-04 01:20 | 50.47783 | 6.01868 | 36974 ft | 463 kts | 110° |
| 2026-05-04 01:20 | 50.46096 | 6.11625 | 36968 ft | 464 kts | 110° |
| 2026-05-04 01:21 | 50.44396 | 6.21400 | 36972 ft | 464 kts | 110° |
| 2026-05-04 01:21 | 50.42688 | 6.31172 | 36971 ft | 465 kts | 110° |
| 2026-05-04 01:22 | 50.41294 | 6.39320 | 36963 ft | 466 kts | 108° |
| 2026-05-04 01:22 | 50.39894 | 6.49269 | 36949 ft | 468 kts | 105° |
| 2026-05-04 01:23 | 50.38574 | 6.59235 | 36961 ft | 467 kts | 105° |
| 2026-05-04 01:23 | 50.37216 | 6.69186 | 36978 ft | 467 kts | 106° |
| 2026-05-04 01:24 | 50.35829 | 6.79107 | 36976 ft | 466 kts | 106° |
| 2026-05-04 01:24 | 50.34429 | 6.88998 | 36996 ft | 466 kts | 106° |
| 2026-05-04 01:25 | 50.33022 | 6.98882 | 36985 ft | 464 kts | 106° |
| 2026-05-04 01:25 | 50.31612 | 7.08734 | 36987 ft | 463 kts | 106° |
| 2026-05-04 01:26 | 50.30199 | 7.18535 | 36993 ft | 462 kts | 106° |
| 2026-05-04 01:26 | 50.28779 | 7.28324 | 36993 ft | 461 kts | 106° |
| 2026-05-04 01:27 | 50.27354 | 7.38075 | 36983 ft | 459 kts | 106° |
| 2026-05-04 01:27 | 50.25926 | 7.47794 | 36997 ft | 459 kts | 106° |
| 2026-05-04 01:28 | 50.24494 | 7.57491 | 37006 ft | 458 kts | 106° |
| 2026-05-04 01:28 | 50.23055 | 7.67195 | 37006 ft | 458 kts | 106° |
| 2026-05-04 01:29 | 50.21612 | 7.76883 | 37006 ft | 459 kts | 106° |
| 2026-05-04 01:29 | 50.20156 | 7.86584 | 36997 ft | 459 kts | 107° |
| 2026-05-04 01:30 | 50.18690 | 7.96293 | 37017 ft | 460 kts | 107° |
| 2026-05-04 01:30 | 50.17223 | 8.05946 | 37014 ft | 461 kts | 107° |
| 2026-05-04 01:31 | 50.15726 | 8.15743 | 37021 ft | 462 kts | 107° |
| 2026-05-04 01:31 | 50.14228 | 8.25480 | 37018 ft | 463 kts | 107° |
| 2026-05-04 01:32 | 50.12728 | 8.35180 | 37014 ft | 463 kts | 107° |
| 2026-05-04 01:32 | 50.11199 | 8.45005 | 36980 ft | 464 kts | 107° |
| 2026-05-04 01:33 | 50.09679 | 8.54703 | 36991 ft | 464 kts | 107° |
| 2026-05-04 01:33 | 50.08143 | 8.64454 | 36995 ft | 464 kts | 107° |
| 2026-05-04 01:34 | 50.06598 | 8.74202 | 36998 ft | 464 kts | 107° |
| 2026-05-04 01:34 | 50.04924 | 8.83890 | 36999 ft | 462 kts | 111° |
| 2026-05-04 01:35 | 50.02808 | 8.93306 | 37008 ft | 461 kts | 113° |
| 2026-05-04 01:35 | 50.00614 | 9.02658 | 37011 ft | 460 kts | 113° |
| 2026-05-04 01:36 | 49.98448 | 9.12018 | 37017 ft | 460 kts | 113° |
| 2026-05-04 01:36 | 49.96302 | 9.21389 | 37019 ft | 460 kts | 113° |
| 2026-05-04 01:37 | 49.94161 | 9.30735 | 37018 ft | 459 kts | 113° |
| 2026-05-04 01:37 | 49.92013 | 9.40072 | 37019 ft | 459 kts | 113° |
| 2026-05-04 01:38 | 49.89860 | 9.49387 | 37019 ft | 458 kts | 113° |
| 2026-05-04 01:38 | 49.87700 | 9.58686 | 37004 ft | 458 kts | 113° |
| 2026-05-04 01:39 | 49.85539 | 9.67957 | 37016 ft | 457 kts | 113° |
| 2026-05-04 01:39 | 49.83370 | 9.77213 | 37025 ft | 456 kts | 113° |
| 2026-05-04 01:40 | 49.81198 | 9.86446 | 37019 ft | 456 kts | 113° |
| 2026-05-04 01:40 | 49.79022 | 9.95664 | 37027 ft | 456 kts | 113° |
| 2026-05-04 01:41 | 49.76840 | 10.04863 | 37020 ft | 455 kts | 113° |
| 2026-05-04 01:41 | 49.74652 | 10.14043 | 37005 ft | 455 kts | 113° |
| 2026-05-04 01:42 | 49.72460 | 10.23205 | 37021 ft | 454 kts | 113° |
| 2026-05-04 01:42 | 49.70264 | 10.32341 | 37027 ft | 454 kts | 113° |
| 2026-05-04 01:43 | 49.68060 | 10.41478 | 37013 ft | 454 kts | 114° |
| 2026-05-04 01:43 | 49.65852 | 10.50593 | 37031 ft | 453 kts | 114° |
| 2026-05-04 01:44 | 49.63639 | 10.59688 | 37031 ft | 453 kts | 114° |
| 2026-05-04 01:44 | 49.61431 | 10.68722 | 37028 ft | 453 kts | 114° |
| 2026-05-04 01:45 | 49.59190 | 10.77851 | 37031 ft | 453 kts | 114° |
| 2026-05-04 01:45 | 49.55852 | 10.91389 | 37024 ft | 452 kts | 114° |
| 2026-05-04 01:46 | 49.53610 | 11.00441 | 37024 ft | 452 kts | 114° |
| 2026-05-04 01:46 | 49.51317 | 11.09455 | 37019 ft | 452 kts | 115° |
| 2026-05-04 01:47 | 49.48885 | 11.18364 | 37025 ft | 452 kts | 116° |
| 2026-05-04 01:47 | 49.46425 | 11.27266 | 37032 ft | 452 kts | 116° |
| 2026-05-04 01:48 | 49.43974 | 11.36168 | 37035 ft | 452 kts | 116° |
| 2026-05-04 01:48 | 49.41523 | 11.45071 | 37035 ft | 453 kts | 116° |
| 2026-05-04 01:49 | 49.39069 | 11.53968 | 37015 ft | 453 kts | 115° |
| 2026-05-04 01:49 | 49.36605 | 11.62866 | 37027 ft | 453 kts | 116° |
| 2026-05-04 01:50 | 49.34136 | 11.71748 | 37022 ft | 452 kts | 115° |
| 2026-05-04 01:50 | 49.31664 | 11.80606 | 37010 ft | 452 kts | 115° |
| 2026-05-04 01:51 | 49.29185 | 11.89455 | 37006 ft | 451 kts | 115° |
| 2026-05-04 01:51 | 49.26704 | 11.98277 | 37009 ft | 451 kts | 116° |
| 2026-05-04 01:52 | 49.24221 | 12.07075 | 36990 ft | 450 kts | 115° |
| 2026-05-04 01:52 | 49.21752 | 12.15792 | 37026 ft | 449 kts | 116° |
| 2026-05-04 01:53 | 49.19265 | 12.24540 | 37014 ft | 448 kts | 116° |
| 2026-05-04 01:53 | 49.16776 | 12.33262 | 37016 ft | 448 kts | 116° |
| 2026-05-04 01:54 | 49.14281 | 12.41976 | 37016 ft | 448 kts | 116° |
| 2026-05-04 01:54 | 49.11779 | 12.50679 | 37019 ft | 448 kts | 116° |
| 2026-05-04 01:55 | 49.09268 | 12.59386 | 37016 ft | 448 kts | 116° |
| 2026-05-04 01:55 | 49.06750 | 12.68083 | 37024 ft | 449 kts | 116° |
| 2026-05-04 01:56 | 49.04219 | 12.76793 | 37020 ft | 450 kts | 116° |
| 2026-05-04 01:56 | 49.01678 | 12.85506 | 37016 ft | 450 kts | 116° |
| 2026-05-04 01:57 | 48.99131 | 12.94210 | 37017 ft | 450 kts | 116° |
| 2026-05-04 01:57 | 48.96576 | 13.02907 | 37018 ft | 450 kts | 116° |
| 2026-05-04 01:58 | 48.94016 | 13.11593 | 37014 ft | 450 kts | 116° |
| 2026-05-04 01:58 | 48.91445 | 13.20284 | 37017 ft | 450 kts | 116° |
| 2026-05-04 01:59 | 48.88868 | 13.28962 | 37003 ft | 450 kts | 116° |
| 2026-05-04 01:59 | 48.86290 | 13.37616 | 37014 ft | 450 kts | 116° |
| 2026-05-04 02:00 | 48.83705 | 13.46261 | 37009 ft | 449 kts | 116° |
| 2026-05-04 02:00 | 48.81115 | 13.54888 | 37010 ft | 449 kts | 117° |
| 2026-05-04 02:01 | 48.78518 | 13.63513 | 37005 ft | 449 kts | 117° |
| 2026-05-04 02:01 | 48.75919 | 13.72120 | 37003 ft | 449 kts | 116° |
| 2026-05-04 02:02 | 48.73370 | 13.80759 | 37009 ft | 449 kts | 116° |
| 2026-05-04 02:02 | 48.70852 | 13.89364 | 37003 ft | 450 kts | 116° |
| 2026-05-04 02:03 | 48.68305 | 13.98021 | 37000 ft | 450 kts | 116° |
| 2026-05-04 02:03 | 48.65745 | 14.06665 | 36988 ft | 450 kts | 115° |
| 2026-05-04 02:04 | 48.63175 | 14.15305 | 36998 ft | 450 kts | 116° |
| 2026-05-04 02:04 | 48.60601 | 14.23921 | 37003 ft | 450 kts | 116° |
| 2026-05-04 02:05 | 48.58020 | 14.32538 | 36997 ft | 450 kts | 116° |
| 2026-05-04 02:05 | 48.55431 | 14.41146 | 36996 ft | 450 kts | 116° |
| 2026-05-04 02:06 | 48.52839 | 14.49736 | 36995 ft | 449 kts | 116° |
| 2026-05-04 02:06 | 48.50243 | 14.58305 | 36991 ft | 449 kts | 116° |
| 2026-05-04 02:07 | 48.47648 | 14.66845 | 36992 ft | 447 kts | 116° |
| 2026-05-04 02:07 | 48.45057 | 14.75348 | 36994 ft | 446 kts | 116° |
| 2026-05-04 02:08 | 48.42464 | 14.83823 | 36990 ft | 445 kts | 115° |
| 2026-05-04 02:08 | 48.39872 | 14.92266 | 37009 ft | 444 kts | 116° |
| 2026-05-04 02:09 | 48.37717 | 14.99265 | 37010 ft | 443 kts | 116° |
| 2026-05-04 02:09 | 48.35120 | 15.07666 | 36998 ft | 443 kts | 116° |
| 2026-05-04 02:10 | 48.32096 | 15.17418 | 36996 ft | 443 kts | 116° |
| 2026-05-04 02:10 | 48.29914 | 15.24435 | 36999 ft | 443 kts | 115° |
| 2026-05-04 02:11 | 48.27301 | 15.32811 | 37009 ft | 443 kts | 115° |
| 2026-05-04 02:11 | 48.24678 | 15.41190 | 37010 ft | 444 kts | 115° |
| 2026-05-04 02:12 | 48.22043 | 15.49579 | 36997 ft | 445 kts | 115° |
| 2026-05-04 02:12 | 48.19395 | 15.57977 | 37010 ft | 446 kts | 115° |
| 2026-05-04 02:13 | 48.16739 | 15.66381 | 37016 ft | 447 kts | 115° |
| 2026-05-04 02:13 | 48.14066 | 15.74802 | 37013 ft | 448 kts | 115° |
| 2026-05-04 02:14 | 48.11401 | 15.83171 | 37007 ft | 449 kts | 115° |
| 2026-05-04 02:14 | 48.08706 | 15.91610 | 37010 ft | 450 kts | 115° |
| 2026-05-04 02:15 | 48.06000 | 16.00049 | 37016 ft | 450 kts | 115° |
| 2026-05-04 02:15 | 48.03287 | 16.08489 | 37005 ft | 450 kts | 115° |
| 2026-05-04 02:16 | 48.00570 | 16.16911 | 37006 ft | 450 kts | 115° |
| 2026-05-04 02:16 | 47.97849 | 16.25315 | 37010 ft | 449 kts | 115° |
| 2026-05-04 02:17 | 47.95123 | 16.33708 | 37018 ft | 449 kts | 115° |
| 2026-05-04 02:17 | 47.92398 | 16.42069 | 37014 ft | 448 kts | 115° |
| 2026-05-04 02:18 | 47.89668 | 16.50422 | 37032 ft | 448 kts | 115° |
| 2026-05-04 02:18 | 47.86932 | 16.58762 | 37014 ft | 448 kts | 115° |
| 2026-05-04 02:19 | 47.84190 | 16.67095 | 37059 ft | 448 kts | 115° |
| 2026-05-04 02:19 | 47.81441 | 16.75418 | 37035 ft | 449 kts | 115° |
| 2026-05-04 02:20 | 47.78684 | 16.83740 | 37066 ft | 449 kts | 115° |
| 2026-05-04 02:20 | 47.75915 | 16.92073 | 37052 ft | 450 kts | 115° |
| 2026-05-04 02:21 | 47.73139 | 17.00403 | 37072 ft | 450 kts | 115° |
| 2026-05-04 02:21 | 47.70352 | 17.08745 | 37090 ft | 451 kts | 115° |
| 2026-05-04 02:22 | 47.67581 | 17.17086 | 37069 ft | 450 kts | 115° |
| 2026-05-04 02:22 | 47.64814 | 17.25400 | 37080 ft | 449 kts | 115° |
| 2026-05-04 02:23 | 47.62043 | 17.33690 | 37083 ft | 448 kts | 115° |
| 2026-05-04 02:23 | 47.59270 | 17.41952 | 37099 ft | 447 kts | 115° |
| 2026-05-04 02:24 | 47.56514 | 17.50135 | 37098 ft | 446 kts | 115° |
| 2026-05-04 02:24 | 47.53741 | 17.58344 | 37098 ft | 445 kts | 115° |
| 2026-05-04 02:25 | 47.50968 | 17.66526 | 37101 ft | 445 kts | 115° |
| 2026-05-04 02:25 | 47.48191 | 17.74693 | 37100 ft | 444 kts | 115° |
| 2026-05-04 02:26 | 47.45413 | 17.82841 | 37108 ft | 444 kts | 115° |
| 2026-05-04 02:26 | 47.42628 | 17.90979 | 37103 ft | 444 kts | 115° |
| 2026-05-04 02:27 | 47.39835 | 17.99115 | 37114 ft | 444 kts | 115° |
| 2026-05-04 02:27 | 47.37037 | 18.07247 | 37126 ft | 445 kts | 115° |
| 2026-05-04 02:28 | 47.34228 | 18.15384 | 37129 ft | 445 kts | 115° |
| 2026-05-04 02:28 | 47.31410 | 18.23518 | 37136 ft | 446 kts | 115° |
| 2026-05-04 02:29 | 47.28584 | 18.31651 | 37132 ft | 446 kts | 115° |
| 2026-05-04 02:29 | 47.25748 | 18.39788 | 37139 ft | 447 kts | 115° |
| 2026-05-04 02:30 | 47.22903 | 18.47924 | 37140 ft | 447 kts | 115° |
| 2026-05-04 02:30 | 47.20055 | 18.56046 | 37145 ft | 447 kts | 115° |
| 2026-05-04 02:31 | 47.17193 | 18.64180 | 37146 ft | 448 kts | 115° |
| 2026-05-04 02:31 | 47.14329 | 18.72297 | 37143 ft | 448 kts | 115° |
| 2026-05-04 02:32 | 47.11457 | 18.80410 | 37148 ft | 447 kts | 115° |
| 2026-05-04 02:32 | 47.08583 | 18.88506 | 37153 ft | 447 kts | 114° |
| 2026-05-04 02:33 | 47.05700 | 18.96600 | 37140 ft | 447 kts | 114° |
| 2026-05-04 02:33 | 47.02815 | 19.04674 | 37145 ft | 447 kts | 115° |
| 2026-05-04 02:34 | 46.99926 | 19.12733 | 37146 ft | 447 kts | 115° |
| 2026-05-04 02:34 | 46.97036 | 19.20777 | 37165 ft | 446 kts | 114° |
| 2026-05-04 02:35 | 46.94137 | 19.28817 | 37154 ft | 446 kts | 114° |
| 2026-05-04 02:35 | 46.91254 | 19.36791 | 37151 ft | 446 kts | 114° |
| 2026-05-04 02:36 | 46.88348 | 19.44806 | 37151 ft | 446 kts | 115° |
| 2026-05-04 02:36 | 46.85435 | 19.52812 | 37152 ft | 446 kts | 115° |
| 2026-05-04 02:37 | 46.82518 | 19.60807 | 37159 ft | 446 kts | 114° |
| 2026-05-04 02:37 | 46.79592 | 19.68802 | 37159 ft | 446 kts | 114° |
| 2026-05-04 02:38 | 46.76666 | 19.76772 | 37155 ft | 446 kts | 115° |
| 2026-05-04 02:38 | 46.73724 | 19.84759 | 37157 ft | 446 kts | 115° |
| 2026-05-04 02:39 | 46.70786 | 19.92715 | 37165 ft | 446 kts | 114° |
| 2026-05-04 02:39 | 46.67837 | 20.00677 | 37158 ft | 446 kts | 114° |
| 2026-05-04 02:40 | 46.64890 | 20.08613 | 37153 ft | 446 kts | 114° |
| 2026-05-04 02:40 | 46.61930 | 20.16557 | 37150 ft | 446 kts | 114° |
| 2026-05-04 02:41 | 46.58968 | 20.24484 | 37153 ft | 446 kts | 115° |
| 2026-05-04 02:41 | 46.56000 | 20.32403 | 37149 ft | 446 kts | 115° |
| 2026-05-04 02:42 | 46.53028 | 20.40312 | 37153 ft | 446 kts | 115° |
| 2026-05-04 02:42 | 46.50044 | 20.48228 | 37152 ft | 447 kts | 115° |
| 2026-05-04 02:43 | 46.47059 | 20.56123 | 37174 ft | 447 kts | 115° |
| 2026-05-04 02:43 | 46.44062 | 20.64027 | 37157 ft | 447 kts | 115° |
| 2026-05-04 02:44 | 46.41063 | 20.71913 | 37152 ft | 447 kts | 115° |
| 2026-05-04 02:44 | 46.38057 | 20.79795 | 37146 ft | 447 kts | 115° |
| 2026-05-04 02:45 | 46.35048 | 20.87661 | 37158 ft | 446 kts | 115° |
| 2026-05-04 02:45 | 46.32035 | 20.95516 | 37158 ft | 446 kts | 115° |
| 2026-05-04 02:46 | 46.29020 | 21.03352 | 37153 ft | 446 kts | 115° |
| 2026-05-04 02:46 | 46.25979 | 21.11168 | 37151 ft | 447 kts | 118° |
| 2026-05-04 02:47 | 46.22460 | 21.18579 | 37161 ft | 448 kts | 122° |
| 2026-05-04 02:47 | 46.18787 | 21.25852 | 37163 ft | 448 kts | 122° |
| 2026-05-04 02:48 | 46.15134 | 21.33132 | 37157 ft | 448 kts | 121° |
| 2026-05-04 02:48 | 46.11513 | 21.40418 | 37157 ft | 447 kts | 121° |
| 2026-05-04 02:49 | 46.07895 | 21.47711 | 37158 ft | 447 kts | 121° |
| 2026-05-04 02:49 | 46.04277 | 21.54991 | 37162 ft | 447 kts | 121° |
| 2026-05-04 02:50 | 46.00652 | 21.62264 | 37161 ft | 447 kts | 121° |
| 2026-05-04 02:50 | 45.97020 | 21.69529 | 37162 ft | 447 kts | 121° |
| 2026-05-04 02:51 | 45.93387 | 21.76778 | 37160 ft | 447 kts | 121° |
| 2026-05-04 02:51 | 45.89772 | 21.83971 | 37180 ft | 447 kts | 121° |
| 2026-05-04 02:52 | 45.86128 | 21.91204 | 37170 ft | 447 kts | 121° |
| 2026-05-04 02:52 | 45.82478 | 21.98430 | 37165 ft | 447 kts | 121° |
| 2026-05-04 02:53 | 45.78820 | 22.05653 | 37175 ft | 447 kts | 121° |
| 2026-05-04 02:53 | 45.75161 | 22.12861 | 37198 ft | 447 kts | 121° |
| 2026-05-04 02:54 | 45.71495 | 22.20065 | 37183 ft | 448 kts | 121° |
| 2026-05-04 02:54 | 45.67818 | 22.27269 | 37180 ft | 448 kts | 121° |
| 2026-05-04 02:55 | 45.62920 | 22.36839 | 37175 ft | 448 kts | 121° |
| 2026-05-04 02:56 | 45.59239 | 22.44010 | 37212 ft | 448 kts | 121° |
| 2026-05-04 02:56 | 45.55549 | 22.51180 | 37194 ft | 448 kts | 121° |
| 2026-05-04 02:57 | 45.51859 | 22.58333 | 37192 ft | 447 kts | 121° |
| 2026-05-04 02:57 | 45.48163 | 22.65480 | 37191 ft | 448 kts | 121° |
| 2026-05-04 02:58 | 45.44456 | 22.72628 | 37211 ft | 449 kts | 121° |
| 2026-05-04 02:58 | 45.40738 | 22.79779 | 37191 ft | 449 kts | 121° |
| 2026-05-04 02:59 | 45.37015 | 22.86917 | 37188 ft | 449 kts | 121° |
| 2026-05-04 02:59 | 45.33291 | 22.94044 | 37176 ft | 448 kts | 121° |
| 2026-05-04 03:00 | 45.29595 | 23.01098 | 37197 ft | 448 kts | 122° |
| 2026-05-04 03:00 | 45.25873 | 23.08182 | 37172 ft | 447 kts | 122° |
| 2026-05-04 03:01 | 45.22160 | 23.15233 | 37159 ft | 445 kts | 122° |
| 2026-05-04 03:01 | 45.18466 | 23.22231 | 37165 ft | 442 kts | 122° |
| 2026-05-04 03:02 | 45.14787 | 23.29186 | 37141 ft | 440 kts | 122° |
| 2026-05-04 03:02 | 45.12948 | 23.32657 | 36820 ft | 440 kts | 122° |
| 2026-05-04 03:02 | 45.11231 | 23.36176 | 36558 ft | 428 kts | 114° |
| 2026-05-04 03:02 | 45.09948 | 23.39902 | 36206 ft | 416 kts | 105° |
| 2026-05-04 03:03 | 45.09109 | 23.43768 | 35843 ft | 407 kts | 99° |
| 2026-05-04 03:03 | 45.08401 | 23.47634 | 35473 ft | 404 kts | 98° |
| 2026-05-04 03:03 | 45.07704 | 23.51469 | 35103 ft | 401 kts | 98° |
| 2026-05-04 03:03 | 45.07009 | 23.55275 | 34732 ft | 398 kts | 98° |
| 2026-05-04 03:04 | 45.06310 | 23.59056 | 34369 ft | 396 kts | 97° |
| 2026-05-04 03:04 | 45.05609 | 23.62806 | 34007 ft | 393 kts | 97° |
| 2026-05-04 03:04 | 45.04909 | 23.66530 | 33574 ft | 391 kts | 97° |
| 2026-05-04 03:04 | 45.04208 | 23.70229 | 33177 ft | 388 kts | 97° |
| 2026-05-04 03:05 | 45.03512 | 23.73892 | 32792 ft | 385 kts | 97° |
| 2026-05-04 03:05 | 45.02817 | 23.77532 | 32421 ft | 381 kts | 97° |
| 2026-05-04 03:05 | 45.02130 | 23.81130 | 32058 ft | 378 kts | 97° |
| 2026-05-04 03:05 | 45.01444 | 23.84709 | 31705 ft | 375 kts | 97° |
| 2026-05-04 03:06 | 45.00765 | 23.88246 | 31353 ft | 372 kts | 97° |
| 2026-05-04 03:06 | 45.00089 | 23.91767 | 31000 ft | 369 kts | 97° |
| 2026-05-04 03:06 | 44.99418 | 23.95249 | 30666 ft | 367 kts | 97° |
| 2026-05-04 03:06 | 44.98751 | 23.98709 | 30347 ft | 364 kts | 97° |
| 2026-05-04 03:07 | 44.98087 | 24.02148 | 29947 ft | 362 kts | 96° |
| 2026-05-04 03:07 | 44.97426 | 24.05562 | 29543 ft | 359 kts | 97° |
| 2026-05-04 03:07 | 44.96771 | 24.08938 | 29190 ft | 354 kts | 97° |
| 2026-05-04 03:07 | 44.96121 | 24.12283 | 28806 ft | 352 kts | 97° |
| 2026-05-04 03:08 | 44.95477 | 24.15592 | 28471 ft | 347 kts | 97° |
| 2026-05-04 03:08 | 44.94839 | 24.18862 | 28092 ft | 344 kts | 97° |
| 2026-05-04 03:08 | 44.94207 | 24.22097 | 27759 ft | 340 kts | 97° |
| 2026-05-04 03:08 | 44.93580 | 24.25303 | 27395 ft | 338 kts | 97° |
| 2026-05-04 03:09 | 44.92958 | 24.28484 | 27049 ft | 335 kts | 97° |
| 2026-05-04 03:09 | 44.92338 | 24.31642 | 26706 ft | 332 kts | 97° |
| 2026-05-04 03:09 | 44.91724 | 24.34768 | 26400 ft | 329 kts | 97° |
| 2026-05-04 03:09 | 44.91115 | 24.37867 | 26048 ft | 327 kts | 97° |
| 2026-05-04 03:10 | 44.90508 | 24.40949 | 25711 ft | 325 kts | 97° |
| 2026-05-04 03:10 | 44.89904 | 24.44011 | 25371 ft | 323 kts | 97° |
| 2026-05-04 03:10 | 44.89304 | 24.47047 | 25040 ft | 321 kts | 97° |
| 2026-05-04 03:10 | 44.88706 | 24.50066 | 24707 ft | 318 kts | 97° |
| 2026-05-04 03:11 | 44.88112 | 24.53062 | 24375 ft | 316 kts | 97° |
| 2026-05-04 03:11 | 44.87520 | 24.56042 | 24053 ft | 315 kts | 97° |
| 2026-05-04 03:11 | 44.86934 | 24.58990 | 23714 ft | 313 kts | 98° |
| 2026-05-04 03:11 | 44.86344 | 24.61953 | 23331 ft | 311 kts | 98° |
| 2026-05-04 03:12 | 44.85760 | 24.64879 | 22972 ft | 309 kts | 98° |
| 2026-05-04 03:12 | 44.85180 | 24.67775 | 22664 ft | 305 kts | 98° |
| 2026-05-04 03:12 | 44.84607 | 24.70643 | 22363 ft | 303 kts | 99° |
| 2026-05-04 03:12 | 44.84035 | 24.73497 | 22004 ft | 301 kts | 99° |
| 2026-05-04 03:13 | 44.83468 | 24.76318 | 21711 ft | 298 kts | 99° |
| 2026-05-04 03:13 | 44.82904 | 24.79122 | 21375 ft | 296 kts | 99° |
| 2026-05-04 03:13 | 44.82352 | 24.81864 | 21068 ft | 294 kts | 99° |
| 2026-05-04 03:13 | 44.81790 | 24.84656 | 20751 ft | 292 kts | 99° |
| 2026-05-04 03:14 | 44.81236 | 24.87402 | 20441 ft | 290 kts | 99° |
| 2026-05-04 03:14 | 44.80693 | 24.90086 | 20145 ft | 288 kts | 99° |
| 2026-05-04 03:14 | 44.80147 | 24.92784 | 19839 ft | 286 kts | 99° |
| 2026-05-04 03:14 | 44.79605 | 24.95457 | 19540 ft | 285 kts | 99° |
| 2026-05-04 03:15 | 44.79063 | 24.98131 | 19238 ft | 283 kts | 99° |
| 2026-05-04 03:15 | 44.78522 | 25.00791 | 18937 ft | 282 kts | 99° |
| 2026-05-04 03:15 | 44.77985 | 25.03432 | 18642 ft | 280 kts | 100° |
| 2026-05-04 03:15 | 44.77449 | 25.06060 | 18341 ft | 279 kts | 101° |
| 2026-05-04 03:16 | 44.76914 | 25.08683 | 18000 ft | 279 kts | 101° |
| 2026-05-04 03:16 | 44.76380 | 25.11299 | 17664 ft | 277 kts | 101° |
| 2026-05-04 03:16 | 44.75849 | 25.13896 | 17356 ft | 275 kts | 101° |
| 2026-05-04 03:16 | 44.75257 | 25.16452 | 17081 ft | 277 kts | 110° |
| 2026-05-04 03:17 | 44.74266 | 25.18776 | 16911 ft | 278 kts | 116° |
| 2026-05-04 03:17 | 44.73199 | 25.21072 | 16740 ft | 286 kts | 117° |
| 2026-05-04 03:17 | 44.72095 | 25.23438 | 16550 ft | 292 kts | 117° |
| 2026-05-04 03:17 | 44.70972 | 25.25846 | 16361 ft | 295 kts | 117° |
| 2026-05-04 03:18 | 44.69852 | 25.28251 | 16156 ft | 293 kts | 117° |
| 2026-05-04 03:18 | 44.68738 | 25.30648 | 15952 ft | 291 kts | 117° |
| 2026-05-04 03:18 | 44.67636 | 25.33024 | 15761 ft | 289 kts | 117° |
| 2026-05-04 03:18 | 44.66540 | 25.35389 | 15573 ft | 288 kts | 117° |
| 2026-05-04 03:19 | 44.65450 | 25.37746 | 15394 ft | 288 kts | 117° |
| 2026-05-04 03:19 | 44.64357 | 25.40109 | 15205 ft | 289 kts | 117° |
| 2026-05-04 03:19 | 44.63263 | 25.42475 | 15018 ft | 289 kts | 117° |
| 2026-05-04 03:19 | 44.62168 | 25.44841 | 14828 ft | 289 kts | 117° |
| 2026-05-04 03:20 | 44.61070 | 25.47210 | 14639 ft | 290 kts | 117° |
| 2026-05-04 03:20 | 44.59972 | 25.49578 | 14449 ft | 290 kts | 117° |
| 2026-05-04 03:20 | 44.58873 | 25.51945 | 14260 ft | 289 kts | 117° |
| 2026-05-04 03:20 | 44.57777 | 25.54306 | 14068 ft | 289 kts | 117° |
| 2026-05-04 03:21 | 44.56682 | 25.56662 | 13869 ft | 288 kts | 117° |
| 2026-05-04 03:21 | 44.55589 | 25.59011 | 13655 ft | 287 kts | 117° |
| 2026-05-04 03:21 | 44.54514 | 25.61318 | 13462 ft | 286 kts | 117° |
| 2026-05-04 03:21 | 44.53430 | 25.63645 | 13269 ft | 285 kts | 117° |
| 2026-05-04 03:22 | 44.52350 | 25.65964 | 13086 ft | 284 kts | 117° |
| 2026-05-04 03:22 | 44.51269 | 25.68279 | 12896 ft | 283 kts | 117° |
| 2026-05-04 03:22 | 44.50192 | 25.70587 | 12707 ft | 283 kts | 117° |
| 2026-05-04 03:22 | 44.49189 | 25.72935 | 12496 ft | 277 kts | 105° |
| 2026-05-04 03:23 | 44.48857 | 25.75522 | 12351 ft | 267 kts | 86° |
| 2026-05-04 03:23 | 44.48958 | 25.78100 | 12172 ft | 264 kts | 81° |
| 2026-05-04 03:23 | 44.49168 | 25.80650 | 11998 ft | 263 kts | 79° |
| 2026-05-04 03:23 | 44.49394 | 25.83192 | 11825 ft | 263 kts | 79° |
| 2026-05-04 03:24 | 44.49617 | 25.85731 | 11651 ft | 263 kts | 79° |
| 2026-05-04 03:24 | 44.49832 | 25.88271 | 11478 ft | 263 kts | 79° |
| 2026-05-04 03:24 | 44.50040 | 25.90808 | 11308 ft | 262 kts | 79° |
| 2026-05-04 03:24 | 44.50245 | 25.93349 | 11135 ft | 262 kts | 79° |
| 2026-05-04 03:25 | 44.50445 | 25.95883 | 10965 ft | 262 kts | 80° |
| 2026-05-04 03:25 | 44.50644 | 25.98422 | 10798 ft | 262 kts | 80° |
| 2026-05-04 03:25 | 44.50840 | 26.00961 | 10623 ft | 262 kts | 80° |
| 2026-05-04 03:25 | 44.51035 | 26.03499 | 10450 ft | 262 kts | 80° |
| 2026-05-04 03:26 | 44.51226 | 26.05993 | 10297 ft | 262 kts | 79° |
| 2026-05-04 03:26 | 44.51418 | 26.08518 | 10116 ft | 258 kts | 79° |
| 2026-05-04 03:26 | 44.51604 | 26.10998 | 9935 ft | 253 kts | 79° |
| 2026-05-04 03:26 | 44.51786 | 26.13415 | 9752 ft | 248 kts | 79° |
| 2026-05-04 03:27 | 44.51966 | 26.15801 | 9581 ft | 246 kts | 79° |
| 2026-05-04 03:27 | 44.52147 | 26.18191 | 9430 ft | 247 kts | 79° |
| 2026-05-04 03:27 | 44.52327 | 26.20589 | 9268 ft | 248 kts | 79° |
| 2026-05-04 03:27 | 44.52508 | 26.22999 | 9111 ft | 249 kts | 79° |
| 2026-05-04 03:28 | 44.52682 | 26.25398 | 8936 ft | 245 kts | 82° |
| 2026-05-04 03:28 | 44.52423 | 26.27762 | 8763 ft | 249 kts | 104° |
| 2026-05-04 03:28 | 44.51659 | 26.29935 | 8610 ft | 249 kts | 113° |
| 2026-05-04 03:28 | 44.50768 | 26.32004 | 8453 ft | 248 kts | 115° |
| 2026-05-04 03:29 | 44.49868 | 26.34074 | 8291 ft | 250 kts | 114° |
| 2026-05-04 03:29 | 44.48971 | 26.36167 | 8145 ft | 251 kts | 114° |
| 2026-05-04 03:29 | 44.48077 | 26.38269 | 7964 ft | 251 kts | 114° |
| 2026-05-04 03:29 | 44.47187 | 26.40373 | 7806 ft | 251 kts | 114° |
| 2026-05-04 03:30 | 44.46310 | 26.42483 | 7644 ft | 249 kts | 110° |
| 2026-05-04 03:30 | 44.45948 | 26.44765 | 7478 ft | 237 kts | 84° |
| 2026-05-04 03:30 | 44.46066 | 26.47042 | 7333 ft | 235 kts | 79° |
| 2026-05-04 03:30 | 44.46246 | 26.49311 | 7171 ft | 234 kts | 79° |
| 2026-05-04 03:31 | 44.46424 | 26.51578 | 7028 ft | 234 kts | 79° |
| 2026-05-04 03:31 | 44.46596 | 26.53843 | 6866 ft | 234 kts | 79° |
| 2026-05-04 03:31 | 44.46765 | 26.56112 | 6709 ft | 234 kts | 80° |
| 2026-05-04 03:31 | 44.46930 | 26.58382 | 6561 ft | 234 kts | 80° |
| 2026-05-04 03:32 | 44.47093 | 26.60630 | 6396 ft | 234 kts | 80° |
| 2026-05-04 03:32 | 44.47292 | 26.62869 | 6223 ft | 227 kts | 71° |
| 2026-05-04 03:32 | 44.48047 | 26.64678 | 6093 ft | 210 kts | 43° |
| 2026-05-04 03:32 | 44.49227 | 26.65761 | 5946 ft | 197 kts | 24° |
| 2026-05-04 03:33 | 44.50508 | 26.66201 | 5800 ft | 186 kts | 5° |
| 2026-05-04 03:33 | 44.51801 | 26.66073 | 5725 ft | 187 kts | 358° |
| 2026-05-04 03:33 | 44.53093 | 26.65900 | 5599 ft | 187 kts | 358° |
| 2026-05-04 03:33 | 44.54370 | 26.65726 | 5484 ft | 186 kts | 358° |
| 2026-05-04 03:34 | 44.55657 | 26.65549 | 5366 ft | 186 kts | 358° |
| 2026-05-04 03:34 | 44.56947 | 26.65370 | 5248 ft | 186 kts | 357° |
| 2026-05-04 03:34 | 44.58231 | 26.65191 | 5125 ft | 186 kts | 357° |
| 2026-05-04 03:34 | 44.59482 | 26.64749 | 4974 ft | 192 kts | 330° |
| 2026-05-04 03:35 | 44.60311 | 26.63267 | 4870 ft | 201 kts | 293° |
| 2026-05-04 03:35 | 44.60424 | 26.61288 | 4750 ft | 208 kts | 268° |
| 2026-05-04 03:35 | 44.60285 | 26.59249 | 4527 ft | 213 kts | 271° |
| 2026-05-04 03:35 | 44.60237 | 26.57195 | 4368 ft | 209 kts | 271° |
| 2026-05-04 03:36 | 44.60147 | 26.55179 | 4202 ft | 205 kts | 269° |
| 2026-05-04 03:36 | 44.60017 | 26.53197 | 4072 ft | 203 kts | 268° |
| 2026-05-04 03:36 | 44.59870 | 26.51219 | 3954 ft | 204 kts | 268° |
| 2026-05-04 03:36 | 44.59716 | 26.49239 | 3818 ft | 204 kts | 267° |
| 2026-05-04 03:37 | 44.59559 | 26.47266 | 3694 ft | 204 kts | 267° |
| 2026-05-04 03:37 | 44.59401 | 26.45286 | 3566 ft | 204 kts | 267° |
| 2026-05-04 03:37 | 44.59242 | 26.43303 | 3435 ft | 205 kts | 266° |
| 2026-05-04 03:37 | 44.59085 | 26.41330 | 3291 ft | 200 kts | 267° |
| 2026-05-04 03:38 | 44.58932 | 26.39417 | 3158 ft | 195 kts | 266° |
| 2026-05-04 03:38 | 44.58784 | 26.37545 | 3022 ft | 191 kts | 266° |
| 2026-05-04 03:38 | 44.58638 | 26.35696 | 2905 ft | 189 kts | 266° |
| 2026-05-04 03:38 | 44.58497 | 26.33905 | 2773 ft | 181 kts | 266° |
| 2026-05-04 03:39 | 44.58361 | 26.32182 | 2646 ft | 175 kts | 266° |
| 2026-05-04 03:39 | 44.58229 | 26.30486 | 2558 ft | 173 kts | 266° |
| 2026-05-04 03:39 | 44.58098 | 26.28815 | 2465 ft | 171 kts | 266° |
| 2026-05-04 03:39 | 44.57968 | 26.27155 | 2269 ft | 171 kts | 266° |
| 2026-05-04 03:40 | 44.57840 | 26.25510 | 2070 ft | 169 kts | 266° |
| 2026-05-04 03:40 | 44.57715 | 26.23914 | 1895 ft | 158 kts | 266° |
| 2026-05-04 03:40 | 44.57600 | 26.22440 | 1676 ft | 147 kts | 266° |
| 2026-05-04 03:40 | 44.57492 | 26.21041 | 1500 ft | 143 kts | 265° |
| 2026-05-04 03:41 | 44.57373 | 26.19652 | 1337 ft | 143 kts | 265° |
| 2026-05-04 03:41 | 44.57263 | 26.18265 | 1159 ft | 144 kts | 266° |
| 2026-05-04 03:41 | 44.57170 | 26.16882 | 955 ft | 142 kts | 264° |
| 2026-05-04 03:41 | 44.57060 | 26.15503 | 800 ft | 142 kts | 264° |
| 2026-05-04 03:42 | 44.56958 | 26.14183 | 603 ft | 136 kts | 263° |
| 2026-05-04 03:42 | 44.56856 | 26.12863 | 455 ft | 137 kts | 264° |
| 2026-05-04 03:42 | 44.56756 | 26.11550 | 328 ft | 130 kts | 264° |
| 2026-05-04 03:42 | 44.56671 | 26.10417 | 322 ft | 100 kts | 264° |
| 2026-05-04 03:43 | 44.56611 | 26.09621 | 322 ft | 64 kts | 264° |
| 2026-05-04 03:43 | 44.56577 | 26.09166 | 321 ft | 32 kts | 264° |
| 2026-05-04 03:43 | 44.56557 | 26.08898 | 321 ft | 23 kts | 265° |
| 2026-05-04 03:43 | 44.56570 | 26.08696 | 321 ft | 19 kts | 297° |
| 2026-05-04 03:44 | 44.56652 | 26.08597 | 321 ft | 13 kts | 339° |
| 2026-05-04 03:44 | 44.56711 | 26.08581 | 321 ft | 13 kts | 354° |
| 2026-05-04 03:44 | 44.56796 | 26.08568 | 321 ft | 12 kts | 354° |
| 2026-05-04 03:44 | 44.56880 | 26.08556 | 321 ft | 12 kts | 354° |
| 2026-05-04 03:45 | 44.56961 | 26.08545 | 321 ft | 12 kts | 354° |
| 2026-05-04 03:45 | 44.57041 | 26.08533 | 322 ft | 11 kts | 354° |
| 2026-05-04 03:45 | 44.57116 | 26.08522 | 322 ft | 11 kts | 354° |
| 2026-05-04 03:45 | 44.57191 | 26.08511 | 322 ft | 11 kts | 354° |
| 2026-05-04 03:46 | 44.57229 | 26.08474 | 322 ft | 7 kts | 284° |
| 2026-05-04 03:46 | 44.57227 | 26.08400 | 322 ft | 10 kts | 264° |
| 2026-05-04 03:46 | 44.57218 | 26.08291 | 322 ft | 12 kts | 264° |
| 2026-05-04 03:46 | 44.57210 | 26.08179 | 322 ft | 12 kts | 264° |
| 2026-05-04 03:47 | 44.57203 | 26.08090 | 322 ft | 9 kts | 264° |
| 2026-05-04 03:47 | 44.57198 | 26.08015 | 322 ft | 3 kts | 264° |
| 2026-05-04 03:47 | 44.57203 | 26.07994 | 322 ft | 2 kts | 311° |
| 2026-05-04 03:47 | 44.57220 | 26.07991 | 321 ft | 2 kts | 358° |
| 2026-05-04 03:48 | 44.57236 | 26.07990 | 322 ft | 2 kts | 358° |
| 2026-05-04 03:48 | 44.57252 | 26.07988 | 322 ft | 2 kts | 354° |
| 2026-05-04 03:48 | 44.57257 | 26.07987 | 322 ft | 0 kts | 354° |